createdAt,value
2022-12-31T00:01:32.007Z,101779.75
2022-12-31T00:04:01.144Z,101771.94
2022-12-31T00:06:32.190Z,101782.00
2022-12-31T00:09:02.990Z,101781.06
2022-12-31T00:11:31.921Z,101783.09
2022-12-31T00:14:00.496Z,101773.16
2022-12-31T00:16:32.034Z,101781.09
2022-12-31T00:19:01.285Z,101781.56
2022-12-31T00:21:31.992Z,101783.56
2022-12-31T00:24:00.419Z,101786.66
2022-12-31T00:26:30.764Z,101770.25
2022-12-31T00:29:02.781Z,101776.84
2022-12-31T00:31:35.412Z,101769.72
2022-12-31T00:34:03.770Z,101766.03
2022-12-31T00:36:34.806Z,101773.03
2022-12-31T00:39:04.504Z,101776.84
2022-12-31T00:41:32.601Z,101778.63
2022-12-31T00:44:01.103Z,101770.47
2022-12-31T00:46:29.100Z,101770.25
2022-12-31T00:48:56.897Z,101776.03
2022-12-31T00:51:27.770Z,101775.34
2022-12-31T00:53:57.101Z,101781.16
2022-12-31T00:56:28.027Z,101777.50
2022-12-31T00:58:56.284Z,101788.50
2022-12-31T01:01:30.684Z,101777.69
2022-12-31T01:04:07.474Z,101781.84
2022-12-31T01:06:35.822Z,101776.66
2022-12-31T01:09:04.546Z,101776.91
2022-12-31T01:11:32.657Z,101791.25
2022-12-31T01:14:03.246Z,101791.25
2022-12-31T01:16:33.807Z,101793.13
2022-12-31T01:19:04.963Z,101802.00
2022-12-31T01:21:34.337Z,101811.25
2022-12-31T01:24:02.168Z,101817.66
2022-12-31T01:26:30.759Z,101819.53
2022-12-31T01:28:58.787Z,101823.19
2022-12-31T01:31:27.317Z,101813.91
2022-12-31T01:33:55.708Z,101816.53
2022-12-31T01:36:28.444Z,101818.63
2022-12-31T01:38:58.201Z,101826.66
2022-12-31T01:41:30.375Z,101837.41
2022-12-31T01:44:22.757Z,101833.19
2022-12-31T01:47:00.758Z,101822.53
2022-12-31T01:49:34.864Z,101843.41
2022-12-31T01:52:20.976Z,101840.28
2022-12-31T01:55:02.933Z,101847.38
2022-12-31T01:57:32.010Z,101847.19
2022-12-31T02:00:02.135Z,101852.63
2022-12-31T02:02:33.328Z,101845.53
2022-12-31T02:05:05.811Z,101862.81
2022-12-31T02:07:33.678Z,101858.91
2022-12-31T02:10:02.115Z,101855.34
2022-12-31T02:12:29.925Z,101859.50
2022-12-31T02:14:57.856Z,101873.97
2022-12-31T02:17:39.312Z,101865.09
2022-12-31T02:20:09.726Z,101872.94
2022-12-31T02:22:37.604Z,101880.41
2022-12-31T02:25:31.198Z,101875.25
2022-12-31T02:28:33.995Z,101868.56
2022-12-31T02:31:11.719Z,101873.44
2022-12-31T02:33:43.108Z,101882.38
2022-12-31T02:36:18.627Z,101881.44
2022-12-31T02:38:48.930Z,101873.81
2022-12-31T02:41:37.713Z,101890.34
2022-12-31T02:44:34.198Z,101879.66
2022-12-31T02:47:25.800Z,101863.16
2022-12-31T02:50:12.103Z,101882.41
2022-12-31T02:53:07.013Z,101890.81
2022-12-31T02:55:50.203Z,101892.38
2022-12-31T02:58:58.360Z,101897.97
2022-12-31T03:01:50.044Z,101907.06
2022-12-31T03:04:33.854Z,101893.69
2022-12-31T03:07:13.828Z,101904.41
2022-12-31T03:09:41.695Z,101907.69
2022-12-31T03:12:30.527Z,101899.31
2022-12-31T03:14:59.027Z,101899.91
2022-12-31T03:17:26.874Z,101897.50
2022-12-31T03:20:13.377Z,101895.53
2022-12-31T03:22:43.357Z,101885.09
2022-12-31T03:25:55.216Z,101896.00
2022-12-31T03:28:26.017Z,101898.25
2022-12-31T03:30:56.899Z,101888.53
2022-12-31T03:33:25.549Z,101888.53
2022-12-31T03:35:54.069Z,101892.03
2022-12-31T03:38:22.090Z,101884.88
2022-12-31T03:40:52.655Z,101890.84
2022-12-31T03:43:20.972Z,101885.50
2022-12-31T03:45:53.437Z,101881.44
2022-12-31T03:48:23.617Z,101888.72
2022-12-31T03:50:52.175Z,101891.44
2022-12-31T03:53:20.292Z,101877.25
2022-12-31T03:55:52.903Z,101872.03
2022-12-31T03:58:21.828Z,101877.28
2022-12-31T04:00:50.141Z,101880.22
2022-12-31T04:03:18.313Z,101885.81
2022-12-31T04:05:53.053Z,101889.91
2022-12-31T04:08:20.918Z,101892.63
2022-12-31T04:10:48.722Z,101893.75
2022-12-31T04:13:16.511Z,101906.13
2022-12-31T04:15:44.687Z,101907.25
2022-12-31T04:18:13.427Z,101903.66
2022-12-31T04:20:41.350Z,101890.97
2022-12-31T04:23:09.147Z,101903.53
2022-12-31T04:25:36.971Z,101901.97
2022-12-31T04:28:04.922Z,101907.19
2022-12-31T04:30:32.764Z,101909.25
2022-12-31T04:33:00.537Z,101909.53
2022-12-31T04:35:28.516Z,101912.59
2022-12-31T04:37:56.290Z,101912.03
2022-12-31T04:40:24.087Z,101916.78
2022-12-31T04:42:51.887Z,101925.09
2022-12-31T04:45:19.749Z,101934.72
2022-12-31T04:47:47.617Z,101932.59
2022-12-31T04:50:15.557Z,101939.84
2022-12-31T04:52:43.344Z,101942.59
2022-12-31T04:55:12.000Z,101951.44
2022-12-31T04:57:41.345Z,101961.81
2022-12-31T05:00:09.663Z,101970.13
2022-12-31T05:02:37.661Z,101974.91
2022-12-31T05:05:06.085Z,101976.69
2022-12-31T05:07:33.855Z,101977.06
2022-12-31T05:10:01.751Z,101975.63
2022-12-31T05:12:29.638Z,101992.34
2022-12-31T05:14:57.467Z,102000.16
2022-12-31T05:17:25.400Z,101990.94
2022-12-31T05:19:53.215Z,101989.03
2022-12-31T05:22:30.204Z,101999.34
2022-12-31T05:24:59.017Z,101988.19
2022-12-31T05:27:31.371Z,101993.16
2022-12-31T05:29:59.951Z,101995.44
2022-12-31T05:32:28.745Z,101991.72
2022-12-31T05:34:57.879Z,102006.09
2022-12-31T05:37:29.520Z,102008.34
2022-12-31T05:39:58.276Z,102013.06
2022-12-31T05:42:26.768Z,102003.47
2022-12-31T05:44:54.693Z,102019.94
2022-12-31T05:47:22.593Z,102027.66
2022-12-31T05:49:50.557Z,102028.81
2022-12-31T05:52:18.791Z,102036.78
2022-12-31T05:54:46.663Z,102027.53
2022-12-31T05:57:14.702Z,102033.81
2022-12-31T05:59:42.508Z,102034.63
2022-12-31T06:02:10.576Z,102029.66
2022-12-31T06:04:38.770Z,102032.56
2022-12-31T06:07:06.827Z,102034.22
2022-12-31T06:09:34.624Z,102027.56
2022-12-31T06:12:02.549Z,102032.31
2022-12-31T06:14:30.390Z,102039.13
2022-12-31T06:16:58.541Z,102035.41
2022-12-31T06:19:26.382Z,102044.09
2022-12-31T06:21:54.202Z,102043.50
2022-12-31T06:24:22.064Z,102058.31
2022-12-31T06:26:50.041Z,102053.34
2022-12-31T06:29:18.204Z,102060.81
2022-12-31T06:31:47.999Z,102067.22
2022-12-31T06:34:15.824Z,102067.94
2022-12-31T06:36:43.679Z,102064.00
2022-12-31T06:39:11.560Z,102058.06
2022-12-31T06:41:39.492Z,102066.59
2022-12-31T06:44:07.395Z,102070.75
2022-12-31T06:46:35.298Z,102077.94
2022-12-31T06:49:03.440Z,102078.22
2022-12-31T06:51:31.269Z,102080.72
2022-12-31T06:53:59.138Z,102092.22
2022-12-31T06:56:34.433Z,102090.91
2022-12-31T06:59:03.972Z,102097.81
2022-12-31T07:01:49.411Z,102100.28
2022-12-31T07:05:10.510Z,102103.13
2022-12-31T07:07:53.091Z,102110.69
2022-12-31T07:10:29.649Z,102117.91
2022-12-31T07:13:32.057Z,102112.88
2022-12-31T07:16:09.236Z,102115.91
2022-12-31T07:18:47.269Z,102115.91
2022-12-31T07:21:18.797Z,102136.16
2022-12-31T07:23:46.910Z,102134.84
2022-12-31T07:26:36.243Z,102141.81
2022-12-31T07:29:28.093Z,102143.34
2022-12-31T07:32:10.300Z,102158.22
2022-12-31T07:34:53.055Z,102145.94
2022-12-31T07:37:44.519Z,102149.41
2022-12-31T07:40:52.670Z,102159.13
2022-12-31T07:43:59.139Z,102164.88
2022-12-31T07:46:54.536Z,102163.97
2022-12-31T07:49:24.257Z,102164.78
2022-12-31T07:51:55.953Z,102158.63
2022-12-31T07:54:23.947Z,102162.69
2022-12-31T07:56:52.306Z,102169.13
2022-12-31T07:59:39.699Z,102170.06
2022-12-31T08:02:15.933Z,102175.78
2022-12-31T08:04:49.593Z,102175.09
2022-12-31T08:07:55.434Z,102187.81
2022-12-31T08:10:48.603Z,102184.19
2022-12-31T08:13:18.062Z,102191.81
2022-12-31T08:15:46.277Z,102192.03
2022-12-31T08:18:14.326Z,102197.66
2022-12-31T08:20:59.200Z,102202.25
2022-12-31T08:23:54.956Z,102210.25
2022-12-31T08:26:45.808Z,102212.84
2022-12-31T08:29:23.848Z,102212.09
2022-12-31T08:32:00.928Z,102210.38
2022-12-31T08:35:06.348Z,102215.34
2022-12-31T08:37:43.052Z,102212.63
2022-12-31T08:40:27.437Z,102215.63
2022-12-31T08:43:01.059Z,102218.16
2022-12-31T08:45:41.992Z,102220.63
2022-12-31T08:48:40.488Z,102226.41
2022-12-31T08:51:17.967Z,102228.50
2022-12-31T08:53:46.376Z,102227.00
2022-12-31T08:56:23.243Z,102223.56
2022-12-31T08:59:25.356Z,102233.34
2022-12-31T09:02:19.209Z,102241.75
2022-12-31T09:04:55.918Z,102237.84
2022-12-31T09:07:37.332Z,102243.78
2022-12-31T09:10:16.813Z,102241.81
2022-12-31T09:13:25.980Z,102255.03
2022-12-31T09:16:18.513Z,102244.00
2022-12-31T09:18:46.535Z,102239.69
2022-12-31T09:21:16.531Z,102244.09
2022-12-31T09:23:44.608Z,102248.88
2022-12-31T09:26:30.445Z,102248.97
2022-12-31T09:29:24.300Z,102247.94
2022-12-31T09:32:23.132Z,102258.38
2022-12-31T09:35:07.613Z,102263.09
2022-12-31T09:37:38.182Z,102253.09
2022-12-31T09:40:53.019Z,102250.63
2022-12-31T09:43:39.741Z,102246.00
2022-12-31T09:46:25.666Z,102240.19
2022-12-31T09:49:25.227Z,102261.88
2022-12-31T09:52:23.873Z,102272.13
2022-12-31T09:54:59.638Z,102268.06
2022-12-31T09:57:40.120Z,102265.06
2022-12-31T10:00:24.270Z,102271.84
2022-12-31T10:03:26.789Z,102274.59
2022-12-31T10:06:21.335Z,102268.28
2022-12-31T10:09:33.863Z,102270.06
2022-12-31T10:12:20.828Z,102277.59
2022-12-31T10:14:57.522Z,102274.09
2022-12-31T10:17:51.217Z,102265.53
2022-12-31T10:20:47.784Z,102272.56
2022-12-31T10:23:31.462Z,102261.47
2022-12-31T10:26:14.899Z,102258.97
2022-12-31T10:29:14.093Z,102257.28
2022-12-31T10:31:41.910Z,102256.31
2022-12-31T10:34:22.176Z,102264.97
2022-12-31T10:36:58.332Z,102259.81
2022-12-31T10:39:55.546Z,102249.97
2022-12-31T10:42:36.744Z,102236.81
2022-12-31T10:45:11.299Z,102232.00
2022-12-31T10:48:14.065Z,102232.97
2022-12-31T10:51:30.199Z,102233.38
2022-12-31T10:54:33.811Z,102234.94
2022-12-31T10:57:28.261Z,102226.28
2022-12-31T11:00:23.102Z,102225.81
2022-12-31T11:03:07.133Z,102234.78
2022-12-31T11:06:08.701Z,102234.78
2022-12-31T11:09:02.906Z,102237.78
2022-12-31T11:12:01.265Z,102230.78
2022-12-31T11:14:53.272Z,102230.09
2022-12-31T11:17:26.740Z,102238.78
2022-12-31T11:20:25.305Z,102250.09
2022-12-31T11:23:18.506Z,102239.97
2022-12-31T11:26:13.537Z,102236.97
2022-12-31T11:28:48.903Z,102237.78
2022-12-31T11:31:38.477Z,102234.69
2022-12-31T11:34:38.261Z,102227.66
2022-12-31T11:37:30.392Z,102236.66
2022-12-31T11:40:35.529Z,102238.81
2022-12-31T11:43:21.266Z,102234.84
2022-12-31T11:46:23.478Z,102222.19
2022-12-31T11:49:28.689Z,102232.72
2022-12-31T11:52:21.045Z,102230.97
2022-12-31T11:55:28.294Z,102230.31
2022-12-31T11:58:02.883Z,102221.03
2022-12-31T12:00:33.117Z,102211.53
2022-12-31T12:03:07.109Z,102216.69
2022-12-31T12:05:37.864Z,102209.97
2022-12-31T12:08:07.298Z,102193.28
2022-12-31T12:10:53.098Z,102183.63
2022-12-31T12:13:24.321Z,102173.97
2022-12-31T12:15:57.467Z,102177.72
2022-12-31T12:18:36.357Z,102192.66
2022-12-31T12:21:09.889Z,102195.41
2022-12-31T12:23:38.847Z,102186.59
2022-12-31T12:26:08.014Z,102177.72
2022-12-31T12:28:45.004Z,102194.09
2022-12-31T12:31:22.222Z,102182.44
2022-12-31T12:33:52.288Z,102180.94
2022-12-31T12:36:22.729Z,102181.81
2022-12-31T12:39:01.900Z,102170.41
2022-12-31T12:41:29.930Z,102166.00
2022-12-31T12:44:13.540Z,102167.66
2022-12-31T12:46:48.465Z,102166.13
2022-12-31T12:49:27.674Z,102176.47
2022-12-31T12:52:20.998Z,102193.59
2022-12-31T12:55:31.084Z,102188.88
2022-12-31T12:58:03.381Z,102181.97
2022-12-31T13:01:04.460Z,102174.44
2022-12-31T13:04:35.697Z,102177.88
2022-12-31T13:07:15.987Z,102183.88
2022-12-31T13:10:33.520Z,102185.84
2022-12-31T13:13:24.178Z,102178.53
2022-12-31T13:16:23.462Z,102170.41
2022-12-31T13:19:16.156Z,102172.97
2022-12-31T13:22:03.411Z,102173.13
2022-12-31T13:25:05.255Z,102184.16
2022-12-31T13:27:38.743Z,102178.34
2022-12-31T13:30:17.582Z,102179.25
2022-12-31T13:32:50.383Z,102184.25
2022-12-31T13:35:42.344Z,102177.22
2022-12-31T13:38:19.072Z,102182.47
2022-12-31T13:40:57.363Z,102173.34
2022-12-31T13:43:39.848Z,102171.84
2022-12-31T13:46:14.874Z,102173.09
2022-12-31T13:48:57.008Z,102173.13
2022-12-31T13:51:28.450Z,102179.88
2022-12-31T13:54:05.673Z,102190.78
2022-12-31T13:56:39.358Z,102182.81
2022-12-31T13:59:20.331Z,102189.72
2022-12-31T14:02:18.015Z,102187.59
2022-12-31T14:04:52.348Z,102183.28
2022-12-31T14:07:22.419Z,102184.25
2022-12-31T14:09:50.848Z,102179.66
2022-12-31T14:12:21.777Z,102188.69
2022-12-31T14:15:28.628Z,102197.63
2022-12-31T14:18:18.379Z,102211.94
2022-12-31T14:20:54.830Z,102219.53
2022-12-31T14:23:59.699Z,102221.31
2022-12-31T14:26:33.705Z,102223.88
2022-12-31T14:29:09.959Z,102226.63
2022-12-31T14:31:49.808Z,102223.03
2022-12-31T14:34:29.257Z,102228.38
2022-12-31T14:37:06.189Z,102242.78
2022-12-31T14:39:49.767Z,102237.16
2022-12-31T14:42:48.297Z,102247.28
2022-12-31T14:45:22.491Z,102247.28
2022-12-31T14:47:53.820Z,102253.34
2022-12-31T14:50:29.973Z,102248.47
2022-12-31T14:53:00.663Z,102254.78
2022-12-31T14:55:29.921Z,102246.22
2022-12-31T14:58:27.270Z,102246.53
2022-12-31T15:00:59.688Z,102255.38
2022-12-31T15:03:45.549Z,102252.78
2022-12-31T15:06:23.258Z,102255.25
2022-12-31T15:09:16.102Z,102247.44
2022-12-31T15:11:46.306Z,102253.00
2022-12-31T15:14:24.138Z,102254.09
2022-12-31T15:16:59.352Z,102248.75
2022-12-31T15:19:33.060Z,102253.75
2022-12-31T15:22:22.077Z,102244.00
2022-12-31T15:24:50.535Z,102253.91
2022-12-31T15:27:33.709Z,102252.34
2022-12-31T15:30:02.505Z,102257.72
2022-12-31T15:32:40.242Z,102254.47
2022-12-31T15:35:23.374Z,102253.06
2022-12-31T15:37:59.254Z,102257.72
2022-12-31T15:40:29.743Z,102266.63
2022-12-31T15:43:10.070Z,102253.78
2022-12-31T15:45:42.895Z,102268.78
2022-12-31T15:48:18.363Z,102269.16
2022-12-31T15:50:47.829Z,102277.50
2022-12-31T15:53:33.680Z,102267.56
2022-12-31T15:56:02.901Z,102277.63
2022-12-31T15:58:37.185Z,102280.31
2022-12-31T16:01:25.002Z,102290.19
2022-12-31T16:03:59.909Z,102301.03
2022-12-31T16:06:34.660Z,102291.53
2022-12-31T16:09:03.703Z,102294.13
2022-12-31T16:11:35.789Z,102306.72
2022-12-31T16:14:04.468Z,102289.97
2022-12-31T16:16:33.791Z,102291.53
2022-12-31T16:19:02.054Z,102292.38
2022-12-31T16:21:37.289Z,102301.91
2022-12-31T16:24:28.596Z,102304.66
2022-12-31T16:27:10.705Z,102307.63
2022-12-31T16:29:55.821Z,102321.22
2022-12-31T16:32:24.987Z,102302.28
2022-12-31T16:34:56.247Z,102305.84
2022-12-31T16:37:28.079Z,102298.13
2022-12-31T16:39:56.915Z,102312.19
2022-12-31T16:42:29.718Z,102323.25
2022-12-31T16:44:58.469Z,102308.88
2022-12-31T16:47:41.809Z,102322.69
2022-12-31T16:50:23.346Z,102313.97
2022-12-31T16:52:59.714Z,102328.16
2022-12-31T16:55:29.761Z,102329.81
2022-12-31T16:58:24.337Z,102313.25
2022-12-31T17:00:54.488Z,102322.78
2022-12-31T17:03:25.440Z,102326.56
2022-12-31T17:06:01.634Z,102330.28
2022-12-31T17:08:43.319Z,102342.94
2022-12-31T17:11:42.399Z,102346.72
2022-12-31T17:14:17.238Z,102341.97
2022-12-31T17:17:08.408Z,102360.81
2022-12-31T17:19:53.352Z,102359.38
2022-12-31T17:22:36.701Z,102351.25
2022-12-31T17:25:23.460Z,102358.41
2022-12-31T17:28:05.844Z,102350.53
2022-12-31T17:30:34.897Z,102363.44
2022-12-31T17:33:10.231Z,102356.03
2022-12-31T17:35:47.046Z,102354.59
2022-12-31T17:38:18.520Z,102344.38
2022-12-31T17:40:51.885Z,102352.22
2022-12-31T17:43:25.107Z,102357.72
2022-12-31T17:45:55.130Z,102364.84
2022-12-31T17:48:25.138Z,102354.75
2022-12-31T17:50:55.627Z,102352.59
2022-12-31T17:53:25.168Z,102370.69
2022-12-31T17:56:00.658Z,102368.78
2022-12-31T17:58:44.371Z,102363.66
2022-12-31T18:01:16.080Z,102358.19
2022-12-31T18:03:44.538Z,102358.66
2022-12-31T18:06:16.646Z,102353.16
2022-12-31T18:08:45.097Z,102359.59
2022-12-31T18:11:19.810Z,102356.63
2022-12-31T18:13:48.345Z,102366.78
2022-12-31T18:16:16.884Z,102369.25
2022-12-31T18:18:45.612Z,102361.28
2022-12-31T18:21:34.780Z,102362.13
2022-12-31T18:26:34.922Z,102368.44
2022-12-31T18:29:13.962Z,102355.44
2022-12-31T18:31:44.448Z,102360.69
2022-12-31T18:34:16.074Z,102362.97
2022-12-31T18:36:44.308Z,102373.56
2022-12-31T18:39:12.482Z,102350.09
2022-12-31T18:41:49.653Z,102369.16
2022-12-31T18:44:18.333Z,102365.56
2022-12-31T18:46:46.360Z,102366.78
2022-12-31T18:49:14.301Z,102355.09
2022-12-31T18:51:42.212Z,102364.28
2022-12-31T18:54:12.440Z,102362.72
2022-12-31T18:56:46.348Z,102371.63
2022-12-31T18:59:15.917Z,102363.19
2022-12-31T19:01:43.992Z,102372.13
2022-12-31T19:04:12.480Z,102380.56
2022-12-31T19:06:40.431Z,102368.44
2022-12-31T19:09:23.922Z,102386.03
2022-12-31T19:11:56.559Z,102383.31
2022-12-31T19:14:29.031Z,102374.16
2022-12-31T19:19:27.849Z,102384.63
2022-12-31T19:21:55.899Z,102379.50
2022-12-31T19:24:26.942Z,102385.47
2022-12-31T19:26:55.164Z,102392.72
2022-12-31T19:29:25.574Z,102376.16
2022-12-31T19:31:53.856Z,102389.88
2022-12-31T19:34:22.553Z,102390.34
2022-12-31T19:36:50.625Z,102392.47
2022-12-31T19:39:21.124Z,102404.63
2022-12-31T19:41:54.697Z,102401.44
2022-12-31T19:44:26.698Z,102398.56
2022-12-31T19:46:54.638Z,102416.19
2022-12-31T19:49:24.258Z,102419.03
2022-12-31T19:51:52.183Z,102412.84
2022-12-31T19:54:20.121Z,102404.66
2022-12-31T19:56:48.191Z,102423.22
2022-12-31T19:59:16.145Z,102430.38
2022-12-31T20:01:44.591Z,102420.22
2022-12-31T20:04:16.082Z,102432.53
2022-12-31T20:06:44.256Z,102434.66
2022-12-31T20:09:12.337Z,102426.91
2022-12-31T20:11:40.478Z,102439.50
2022-12-31T20:14:08.411Z,102440.34
2022-12-31T20:16:36.601Z,102442.97
2022-12-31T20:19:06.191Z,102438.56
2022-12-31T20:21:34.163Z,102432.09
2022-12-31T20:24:02.224Z,102434.16
2022-12-31T20:26:30.172Z,102442.97
2022-12-31T20:28:58.068Z,102432.09
2022-12-31T20:31:26.786Z,102435.56
2022-12-31T20:33:55.552Z,102431.75
2022-12-31T20:36:24.315Z,102435.47
2022-12-31T20:38:52.397Z,102426.91
2022-12-31T20:41:22.667Z,102429.16
2022-12-31T20:43:50.913Z,102442.75
2022-12-31T20:46:22.147Z,102430.44
2022-12-31T20:48:51.846Z,102438.69
2022-12-31T20:51:20.774Z,102445.13
2022-12-31T20:53:51.279Z,102443.31
2022-12-31T20:56:19.325Z,102432.50
2022-12-31T20:58:47.223Z,102431.75
2022-12-31T21:01:16.087Z,102430.94
2022-12-31T21:06:35.356Z,102430.09
2022-12-31T21:09:06.381Z,102438.06
2022-12-31T21:11:53.798Z,102435.09
2022-12-31T21:14:21.971Z,102437.00
2022-12-31T21:16:50.207Z,102429.84
2022-12-31T21:19:18.170Z,102439.63
2022-12-31T21:21:46.041Z,102443.31
2022-12-31T21:24:23.307Z,102441.66
2022-12-31T21:26:54.688Z,102430.47
2022-12-31T21:29:22.789Z,102427.75
2022-12-31T21:31:50.759Z,102425.13
2022-12-31T21:34:18.641Z,102423.44
2022-12-31T21:36:46.624Z,102428.69
2022-12-31T21:39:14.664Z,102415.13
2022-12-31T21:41:51.666Z,102426.31
2022-12-31T21:44:24.559Z,102428.09
2022-12-31T21:47:40.931Z,102430.63
2022-12-31T21:50:09.221Z,102438.69
2022-12-31T21:52:37.343Z,102411.50
2022-12-31T21:55:24.404Z,102434.16
2022-12-31T21:58:24.627Z,102422.59
2022-12-31T22:00:59.394Z,102427.47
2022-12-31T22:03:28.331Z,102448.00
2022-12-31T22:06:14.393Z,102436.28
2022-12-31T22:08:44.879Z,102432.00
2022-12-31T22:11:14.208Z,102430.34
2022-12-31T22:13:42.622Z,102421.53
2022-12-31T22:16:12.806Z,102413.78
2022-12-31T22:18:43.107Z,102425.41
2022-12-31T22:21:24.975Z,102440.59
2022-12-31T22:23:55.336Z,102432.97
2022-12-31T22:26:26.392Z,102437.50
2022-12-31T22:28:59.570Z,102448.00
2022-12-31T22:31:32.755Z,102429.03
2022-12-31T22:34:02.119Z,102416.78
2022-12-31T22:36:30.107Z,102421.41
2022-12-31T22:38:58.685Z,102430.34
2022-12-31T22:41:27.855Z,102414.88
2022-12-31T22:44:04.102Z,102430.34
2022-12-31T22:46:34.117Z,102424.38
2022-12-31T22:49:03.961Z,102418.91
2022-12-31T22:51:56.305Z,102416.25
2022-12-31T22:54:20.530Z,102417.34
2022-12-31T22:56:48.451Z,102411.72
2022-12-31T22:59:16.284Z,102411.28
2022-12-31T23:01:44.332Z,102412.22
2022-12-31T23:04:12.528Z,102415.91
2022-12-31T23:06:46.349Z,102409.78
2022-12-31T23:09:35.409Z,102410.41
2022-12-31T23:12:05.416Z,102418.50
2022-12-31T23:14:52.602Z,102406.47
2022-12-31T23:17:47.298Z,102410.97
2022-12-31T23:20:36.705Z,102418.09
2022-12-31T23:23:11.936Z,102398.44
2022-12-31T23:25:48.633Z,102401.06
2022-12-31T23:28:22.649Z,102397.38
2022-12-31T23:30:53.954Z,102391.94
2022-12-31T23:33:24.938Z,102390.69
2022-12-31T23:36:04.485Z,102391.72
2022-12-31T23:38:35.001Z,102398.19
2022-12-31T23:41:12.703Z,102383.19
2022-12-31T23:43:40.865Z,102389.75
2022-12-31T23:46:08.836Z,102376.91
2022-12-31T23:48:39.616Z,102377.97
2022-12-31T23:51:07.586Z,102381.31
2022-12-31T23:53:38.357Z,102370.09
2022-12-31T23:56:17.662Z,102394.75
2022-12-31T23:58:53.913Z,102388.22
